Time;durP1;ratioP1;P1;durP2;ratioP2;P2;SDS_P1;SDS_P2;PMS_P1;PMS_P2;Temp;Humidity;BMP_temperature;BMP_pressure;BME280_temperature;BME280_humidity;BME280_pressure;Samples;Min_cycle;Max_cycle;Signal;HPM_P1;HPM_P2
2022/06/23 00:01:33;;;;;;;2.30;2.10;;;;;;;16.00;79.29;98685.33;1722024;82;21042;-76
2022/06/23 00:04:01;;;;;;;2.55;2.25;;;;;;;15.98;79.29;98688.76;1717461;82;21035;-77
2022/06/23 00:06:45;;;;;;;3.37;2.10;;;;;;;15.94;79.24;98684.38;1733555;82;21119;-78
2022/06/23 00:09:40;;;;;;;2.50;2.30;;;;;;;16.02;79.13;98693.42;1705769;82;21077;-79
2022/06/23 00:12:36;;;;;;;7.40;3.22;;;;;;;16.08;79.04;98693.02;1722826;82;21085;-78
2022/06/23 00:15:08;;;;;;;5.65;2.65;;;;;;;16.03;79.12;98688.37;1718684;82;21122;-78
2022/06/23 00:17:49;;;;;;;3.72;2.27;;;;;;;15.98;79.22;98694.12;1719666;82;21099;-76
2022/06/23 00:20:23;;;;;;;4.42;2.02;;;;;;;15.90;79.49;98692.58;1731366;82;22091;-78
2022/06/23 00:22:55;;;;;;;2.22;2.00;;;;;;;15.92;79.54;98689.95;1758502;80;21081;-75
2022/06/23 00:25:45;;;;;;;5.20;2.25;;;;;;;15.96;79.51;98693.53;1746249;80;21057;-78
2022/06/23 00:28:19;;;;;;;2.70;2.40;;;;;;;15.93;79.66;98701.48;1745634;80;21005;-79
2022/06/23 00:30:49;;;;;;;2.92;2.52;;;;;;;15.88;79.67;98700.83;1748163;81;21061;-77
2022/06/23 00:33:25;;;;;;;3.00;2.10;;;;;;;15.85;79.87;98701.28;1723369;81;21827;-78
2022/06/23 00:35:52;;;;;;;2.33;2.12;;;;;;;15.91;79.80;98708.92;1743615;80;21061;-75
2022/06/23 00:38:23;;;;;;;4.58;2.62;;;;;;;16.01;79.63;98705.20;1744810;80;21113;-76
2022/06/23 00:40:49;;;;;;;2.50;2.30;;;;;;;15.98;79.62;98704.30;1740595;80;21243;-77
2022/06/23 00:43:17;;;;;;;4.35;2.60;;;;;;;15.95;79.78;98702.59;1746496;82;21569;-76
2022/06/23 00:45:52;;;;;;;4.08;2.52;;;;;;;15.92;80.05;98707.89;1749869;82;21214;-78
2022/06/23 00:48:41;;;;;;;5.85;2.77;;;;;;;15.97;80.26;98700.50;1738123;80;21080;-77
2022/06/23 00:51:22;;;;;;;3.77;3.25;;;;;;;16.06;80.61;98700.48;1733008;81;20978;-78
2022/06/23 00:54:06;;;;;;;4.70;2.92;;;;;;;16.01;80.87;98701.17;1750647;82;21063;-74
2022/06/23 00:56:47;;;;;;;4.10;2.90;;;;;;;15.94;81.63;98695.63;1738336;80;21044;-77
2022/06/23 00:59:25;;;;;;;4.78;2.83;;;;;;;15.84;82.02;98691.63;1742241;80;21127;-75
2022/06/23 01:02:08;;;;;;;3.17;2.85;;;;;;;15.90;82.17;98679.19;1744220;82;21056;-76
2022/06/23 01:04:59;;;;;;;5.62;3.30;;;;;;;15.88;82.55;98682.09;1744405;82;21018;-77
2022/06/23 01:08:06;;;;;;;3.62;3.15;;;;;;;15.84;83.33;98689.45;1746173;81;21085;-76
2022/06/23 01:10:47;;;;;;;4.22;2.98;;;;;;;15.79;83.71;98688.00;1747234;80;21010;-76
2022/06/23 01:13:42;;;;;;;3.35;2.75;;;;;;;15.79;83.96;98686.12;1742064;80;21165;-76
2022/06/23 01:16:25;;;;;;;3.75;3.30;;;;;;;15.80;84.34;98687.77;1748870;81;21531;-76
2022/06/23 01:19:34;;;;;;;4.42;2.98;;;;;;;15.69;85.00;98698.69;1750311;81;21032;-79
2022/06/23 01:22:03;;;;;;;8.95;3.08;;;;;;;15.62;85.66;98694.47;1740590;80;21049;-78
2022/06/23 01:24:53;;;;;;;4.08;3.20;;;;;;;15.65;85.91;98694.84;1724325;81;21051;-79
2022/06/23 01:27:27;;;;;;;7.00;3.50;;;;;;;15.63;86.32;98689.42;1696376;82;21173;-79
2022/06/23 01:30:02;;;;;;;5.60;3.58;;;;;;;15.56;87.21;98683.34;1714976;82;21546;-80
2022/06/23 01:32:35;;;;;;;5.40;3.30;;;;;;;15.57;87.69;98685.79;1751584;79;21133;-79
2022/06/23 01:35:29;;;;;;;5.17;4.03;;;;;;;15.62;87.75;98686.44;1756528;79;21064;-79
2022/06/23 01:38:03;;;;;;;5.83;3.92;;;;;;;15.56;88.22;98680.66;1755775;79;21020;-81
2022/06/23 01:40:37;;;;;;;5.42;3.70;;;;;;;15.48;88.67;98684.47;1748322;80;21072;-79
2022/06/23 01:43:20;;;;;;;5.47;3.72;;;;;;;15.52;88.79;98685.64;1756756;81;21024;-80
2022/06/23 01:45:58;;;;;;;7.20;4.00;;;;;;;15.52;88.71;98681.09;1751291;79;21084;-81
2022/06/23 01:48:53;;;;;;;6.55;4.80;;;;;;;15.39;89.34;98682.60;1747333;80;21362;-82
2022/06/23 01:51:34;;;;;;;8.20;4.25;;;;;;;15.27;90.00;98691.91;1756108;79;21036;-79
2022/06/23 01:54:24;;;;;;;4.65;4.22;;;;;;;15.24;90.74;98690.20;1694726;84;21482;-82
2022/06/23 01:57:29;;;;;;;6.87;4.90;;;;;;;15.23;91.16;98689.92;1729980;81;21070;-83
2022/06/23 02:00:17;;;;;;;7.00;4.87;;;;;;;15.11;91.65;98692.52;1733088;81;21099;-83
2022/06/23 02:03:10;;;;;;;7.40;4.75;;;;;;;15.06;92.19;98688.36;1736790;81;21070;-83
2022/06/23 02:05:57;;;;;;;7.40;4.90;;;;;;;15.09;91.75;98702.10;1730570;81;21120;-82
2022/06/23 02:08:39;;;;;;;5.28;4.78;;;;;;;15.05;92.33;98696.91;1736088;81;21768;-84
2022/06/23 02:11:45;;;;;;;4.40;4.00;;;;;;;15.01;92.49;98698.39;1717497;81;21058;-82
2022/06/23 02:14:46;;;;;;;7.40;4.20;;;;;;;15.09;92.66;98698.09;1720079;81;21034;-82
2022/06/23 02:17:33;;;;;;;4.80;4.22;;;;;;;15.08;92.67;98703.13;1736150;81;21022;-80
2022/06/23 02:20:34;;;;;;;5.67;3.90;;;;;;;15.01;92.25;98697.55;1730714;81;21046;-82
2022/06/23 02:23:21;;;;;;;4.28;3.72;;;;;;;15.07;92.32;98704.72;1738208;82;21105;-80
2022/06/23 02:25:53;;;;;;;5.33;4.37;;;;;;;15.09;92.06;98705.31;1737139;82;21082;-80
2022/06/23 02:28:43;;;;;;;6.03;3.85;;;;;;;15.03;92.29;98712.36;1726795;81;21037;-80
2022/06/23 02:31:37;;;;;;;4.90;4.45;;;;;;;15.06;92.35;98703.88;1725944;81;21103;-80
2022/06/23 02:34:18;;;;;;;4.70;4.10;;;;;;;15.17;92.04;98704.20;1708753;82;21018;-78
2022/06/23 02:37:02;;;;;;;5.55;4.10;;;;;;;15.17;91.69;98706.87;1727492;81;21172;-76
2022/06/23 02:39:50;;;;;;;4.75;3.42;;;;;;;15.14;91.25;98708.95;1717604;81;21555;-80
2022/06/23 02:42:35;;;;;;;5.35;4.03;;;;;;;15.23;91.05;98712.66;1729314;81;21107;-76
2022/06/23 02:45:19;;;;;;;4.83;3.70;;;;;;;15.29;90.37;98711.23;1717897;81;21065;-77
2022/06/23 02:47:57;;;;;;;4.92;3.52;;;;;;;15.27;90.44;98719.19;1742071;79;21513;-78
2022/06/23 02:50:50;;;;;;;6.20;3.47;;;;;;;15.31;90.21;98719.84;1747050;81;21121;-76
2022/06/23 02:53:43;;;;;;;5.37;3.83;;;;;;;15.40;89.96;98715.03;1759750;81;21129;-80
2022/06/23 02:56:33;;;;;;;5.20;3.90;;;;;;;15.37;89.61;98710.11;1760017;80;21127;-80
2022/06/23 02:59:14;;;;;;;4.72;3.92;;;;;;;15.30;89.82;98714.75;1755285;79;21069;-81
2022/06/23 03:01:48;;;;;;;6.05;3.83;;;;;;;15.29;89.64;98709.08;1758932;79;21056;-81
2022/06/23 03:04:32;;;;;;;4.17;3.77;;;;;;;15.43;89.33;98717.77;1755872;80;21525;-82
2022/06/23 03:07:35;;;;;;;4.67;3.80;;;;;;;15.39;89.16;98721.41;1764701;81;21060;-82
2022/06/23 03:10:23;;;;;;;5.05;3.70;;;;;;;15.34;88.92;98719.94;1759562;80;21481;-81
2022/06/23 03:13:12;;;;;;;4.28;3.80;;;;;;;15.41;88.70;98720.66;1753823;81;21172;-79
2022/06/23 03:15:45;;;;;;;4.50;4.10;;;;;;;15.41;88.71;98719.32;1751374;81;21149;-79
2022/06/23 03:18:22;;;;;;;5.87;3.45;;;;;;;15.36;88.80;98719.72;1747313;80;21125;-78
2022/06/23 03:21:02;;;;;;;4.90;3.12;;;;;;;15.39;88.81;98721.94;1759606;81;20947;-77
2022/06/23 03:23:43;;;;;;;4.12;3.75;;;;;;;15.47;88.43;98717.11;1761950;79;21045;-81
2022/06/23 03:26:29;;;;;;;4.28;3.90;;;;;;;15.47;88.33;98717.61;1752773;81;20991;-80
2022/06/23 03:29:10;;;;;;;5.03;3.55;;;;;;;15.44;88.58;98722.90;1745544;80;21510;-80
2022/06/23 03:31:42;;;;;;;5.72;3.45;;;;;;;15.49;88.29;98728.41;1758382;79;21811;-79
2022/06/23 03:34:17;;;;;;;8.80;4.60;;;;;;;15.61;88.41;98727.66;1752196;81;21048;-82
2022/06/23 03:36:47;;;;;;;5.85;3.87;;;;;;;15.61;88.53;98728.99;1761381;81;22341;-81
2022/06/23 03:42:31;;;;;;;4.35;3.98;;;;;;;15.67;88.18;98733.44;1757556;81;21033;-80
2022/06/23 03:45:32;;;;;;;4.35;3.95;;;;;;;15.76;88.04;98746.01;1764784;81;21142;-81
2022/06/23 03:48:19;;;;;;;4.00;3.60;;;;;;;15.68;87.87;98741.25;1739114;81;21041;-80
2022/06/23 03:51:08;;;;;;;4.83;3.35;;;;;;;15.63;88.04;98749.66;1750819;80;21101;-79
2022/06/23 03:53:42;;;;;;;5.75;3.95;;;;;;;15.72;87.84;98753.64;1749992;80;21056;-79
2022/06/23 03:56:16;;;;;;;4.92;3.83;;;;;;;15.77;87.65;98747.66;1753432;79;21090;-80
2022/06/23 03:59:00;;;;;;;4.20;3.80;;;;;;;15.77;87.79;98753.02;1758745;79;21213;-79
2022/06/23 04:01:41;;;;;;;4.80;3.40;;;;;;;15.77;87.67;98755.69;1751470;79;21040;-78
2022/06/23 04:04:18;;;;;;;5.03;3.67;;;;;;;15.90;87.54;98760.34;1759606;81;21016;-77
2022/06/23 04:06:47;;;;;;;7.80;3.60;;;;;;;15.94;87.34;98762.58;1763578;81;21067;-80
2022/06/23 04:09:27;;;;;;;5.97;3.70;;;;;;;15.92;87.20;98768.16;1754400;81;21044;-80
2022/06/23 04:12:08;;;;;;;4.85;4.45;;;;;;;15.96;87.06;98772.02;1758936;81;21889;-77
2022/06/23 04:14:53;;;;;;;4.05;3.50;;;;;;;16.03;86.72;98771.91;1764033;79;20977;-77
2022/06/23 04:17:39;;;;;;;5.20;3.80;;;;;;;16.00;87.02;98775.87;1740635;81;22241;-78
2022/06/23 04:20:22;;;;;;;4.62;3.70;;;;;;;15.97;86.78;98772.30;1732188;82;21108;-81
2022/06/23 04:22:55;;;;;;;4.30;3.90;;;;;;;16.06;86.65;98776.83;1723005;82;21018;-80
2022/06/23 04:25:26;;;;;;;5.55;4.10;;;;;;;16.12;86.48;98776.72;1740770;82;21044;-77
2022/06/23 04:27:57;;;;;;;4.70;4.25;;;;;;;16.10;86.22;98779.34;1736631;82;21111;-79
2022/06/23 04:30:36;;;;;;;5.08;3.40;;;;;;;16.06;86.24;98783.52;1735955;81;21109;-78
2022/06/23 04:33:05;;;;;;;3.80;3.20;;;;;;;16.09;86.13;98781.74;1736132;82;21163;-76
2022/06/23 04:35:37;;;;;;;6.15;3.65;;;;;;;16.17;86.02;98790.80;1757023;81;20982;-79
2022/06/23 04:38:40;;;;;;;4.95;3.45;;;;;;;16.16;86.08;98786.47;1753590;80;21747;-83
2022/06/23 04:41:46;;;;;;;4.05;3.65;;;;;;;16.12;86.15;98782.61;1755831;80;21505;-79
2022/06/23 04:44:17;;;;;;;6.45;3.60;;;;;;;16.19;86.16;98777.98;1754908;80;20998;-79
2022/06/23 04:46:47;;;;;;;4.37;3.75;;;;;;;16.27;86.17;98783.01;1748070;81;21061;-81
2022/06/23 04:49:19;;;;;;;5.53;4.50;;;;;;;16.24;86.15;98789.34;1742134;80;21058;-81
2022/06/23 04:52:06;;;;;;;5.05;3.80;;;;;;;16.22;86.30;98789.56;1752943;80;21461;-81
2022/06/23 04:54:37;;;;;;;6.83;3.60;;;;;;;16.35;86.25;98791.25;1763911;81;21533;-82
2022/06/23 04:57:12;;;;;;;4.37;3.98;;;;;;;16.42;85.95;98795.19;1733693;81;21068;-80
2022/06/23 04:59:55;;;;;;;6.03;3.80;;;;;;;16.42;86.04;98794.66;1760117;80;21013;-81
2022/06/23 05:02:43;;;;;;;4.80;3.58;;;;;;;16.44;85.80;98795.77;1747417;81;21065;-82
2022/06/23 05:05:16;;;;;;;8.13;4.10;;;;;;;16.57;85.60;98796.88;1741471;81;21520;-82
2022/06/23 05:08:00;;;;;;;4.60;4.05;;;;;;;16.63;85.47;98805.88;1762386;81;21084;-78
2022/06/23 05:10:35;;;;;;;5.70;4.15;;;;;;;16.63;85.61;98809.39;1759820;80;21048;-80
2022/06/23 05:13:06;;;;;;;10.43;4.97;;;;;;;16.66;85.51;98802.74;1748680;80;21032;-79
2022/06/23 05:15:50;;;;;;;4.03;3.40;;;;;;;16.75;85.17;98805.39;1745169;80;21052;-79
2022/06/23 05:18:27;;;;;;;5.70;4.00;;;;;;;16.84;84.70;98803.20;1744204;80;21517;-80
2022/06/23 05:21:07;;;;;;;4.72;3.85;;;;;;;16.78;84.64;98808.12;1709672;82;21052;-80
2022/06/23 05:24:02;;;;;;;4.10;3.77;;;;;;;16.73;84.73;98811.51;1738547;81;21061;-79
2022/06/23 05:26:32;;;;;;;5.20;4.03;;;;;;;16.80;84.63;98816.75;1756036;81;21199;-78
2022/06/23 05:29:03;;;;;;;6.05;3.83;;;;;;;16.88;84.52;98808.39;1737022;81;21041;-80
2022/06/23 05:31:34;;;;;;;8.73;3.98;;;;;;;16.87;84.54;98815.62;1752209;81;21461;-79
2022/06/23 05:34:05;;;;;;;5.22;3.90;;;;;;;16.87;84.71;98818.84;1763614;81;21238;-79
2022/06/23 05:36:37;;;;;;;4.90;4.08;;;;;;;16.96;84.69;98816.62;1754420;80;21109;-80
2022/06/23 05:39:24;;;;;;;4.37;3.97;;;;;;;17.09;84.47;98816.39;1757130;80;21002;-78
2022/06/23 05:41:53;;;;;;;4.53;3.37;;;;;;;17.13;84.10;98825.61;1751085;81;21039;-79
2022/06/23 05:44:25;;;;;;;7.00;3.55;;;;;;;17.16;84.12;98817.64;1742657;81;21240;-79
2022/06/23 05:46:52;;;;;;;4.67;3.60;;;;;;;17.27;83.87;98824.34;1754508;81;21002;-81
2022/06/23 05:49:25;;;;;;;5.22;3.98;;;;;;;17.45;83.84;98819.36;1750962;80;21061;-81
2022/06/23 05:52:09;;;;;;;7.42;4.12;;;;;;;17.56;83.32;98827.12;1765641;81;21162;-81
2022/06/23 05:54:49;;;;;;;5.37;3.92;;;;;;;17.62;82.95;98829.39;1748757;80;21056;-82
2022/06/23 05:57:27;;;;;;;5.85;4.10;;;;;;;17.68;82.85;98827.09;1709447;83;21712;-81
2022/06/23 06:00:21;;;;;;;8.28;3.77;;;;;;;17.82;82.40;98835.16;1702377;82;21017;-79
2022/06/23 06:03:36;;;;;;;7.40;4.47;;;;;;;18.00;81.87;98829.36;1858950;75;28603;-81
2022/06/23 06:06:03;;;;;;;5.90;3.77;;;;;;;18.00;81.31;98836.09;1833413;77;21588;-81
2022/06/23 06:11:47;;;;;;;6.33;4.00;;;;;;;18.10;80.89;98833.62;1838118;77;20933;-82
2022/06/23 06:14:15;;;;;;;5.35;4.08;;;;;;;18.20;80.59;98835.14;1835643;77;20981;-80
2022/06/23 06:16:42;;;;;;;8.73;3.77;;;;;;;18.23;80.40;98843.25;1844681;77;20938;-77
2022/06/23 06:19:17;;;;;;;5.03;3.65;;;;;;;18.23;80.59;98841.40;1834834;77;21087;-75
2022/06/23 06:21:45;;;;;;;4.20;3.67;;;;;;;18.28;80.20;98833.95;1853220;77;21121;-81
2022/06/23 06:24:17;;;;;;;3.92;3.60;;;;;;;18.47;79.33;98825.16;1820386;77;21269;-81
2022/06/23 06:26:47;;;;;;;3.87;3.52;;;;;;;18.55;79.28;98815.33;1789157;78;21004;-79
2022/06/23 06:29:26;;;;;;;5.70;4.22;;;;;;;18.61;78.69;98808.98;1799350;78;21773;-79
2022/06/23 06:32:26;;;;;;;4.87;3.70;;;;;;;18.67;78.27;98811.23;1767531;80;21556;-82
2022/06/23 06:35:03;;;;;;;5.30;3.42;;;;;;;18.77;77.51;98815.95;1816990;78;21410;-81
2022/06/23 06:37:36;;;;;;;6.00;4.12;;;;;;;18.96;76.25;98829.48;1812474;78;20959;-81
2022/06/23 06:40:03;;;;;;;4.50;4.00;;;;;;;19.01;76.96;98832.80;1808601;78;20996;-79
2022/06/23 06:42:45;;;;;;;4.15;3.80;;;;;;;19.03;76.26;98836.06;1786808;78;21081;-79
2022/06/23 06:45:14;;;;;;;7.22;3.90;;;;;;;19.00;75.57;98837.34;1808562;78;21021;-79
2022/06/23 06:47:41;;;;;;;7.87;3.80;;;;;;;18.92;75.29;98846.38;1769451;80;21038;-81
2022/06/23 06:50:24;;;;;;;6.45;3.52;;;;;;;18.90;75.40;98847.16;1803010;78;21005;-80
2022/06/23 06:52:51;;;;;;;7.05;4.17;;;;;;;18.94;75.46;98854.48;1761672;80;21100;-81
2022/06/23 06:55:31;;;;;;;4.28;3.87;;;;;;;18.91;75.65;98859.53;1816524;78;21030;-81
2022/06/23 06:58:13;;;;;;;6.87;3.58;;;;;;;18.87;75.88;98853.81;1776295;78;21072;-81
2022/06/23 07:00:47;;;;;;;4.10;3.67;;;;;;;18.88;76.05;98857.34;1772344;78;21851;-79
2022/06/23 07:03:16;;;;;;;8.30;3.83;;;;;;;19.01;76.07;98870.48;1778392;78;21049;-80
2022/06/23 07:05:53;;;;;;;3.62;3.33;;;;;;;19.07;74.81;98869.50;1775997;79;21574;-78
2022/06/23 07:08:50;;;;;;;7.83;4.17;;;;;;;19.01;74.88;98868.59;1783012;79;21048;-80
2022/06/23 07:11:31;;;;;;;4.17;3.75;;;;;;;18.90;75.03;98874.87;1757311;80;21088;-79
2022/06/23 07:14:05;;;;;;;4.08;3.77;;;;;;;18.83;75.30;98883.63;1761037;80;21517;-78
2022/06/23 07:16:49;;;;;;;7.62;3.83;;;;;;;18.78;75.56;98889.70;1768132;80;21058;-80
2022/06/23 07:19:36;;;;;;;6.65;3.20;;;;;;;18.86;75.29;98893.38;1772205;79;21061;-80
2022/06/23 07:22:28;;;;;;;4.30;3.58;;;;;;;18.96;75.04;98899.45;1775509;80;21029;-80
2022/06/23 07:25:06;;;;;;;6.80;4.50;;;;;;;18.94;74.95;98890.00;1770832;80;21042;-79
2022/06/23 07:27:46;;;;;;;4.37;3.98;;;;;;;18.88;74.77;98900.40;1772529;80;21192;-78
2022/06/23 07:30:26;;;;;;;3.80;3.10;;;;;;;18.91;75.05;98898.05;1784170;80;21243;-78
2022/06/23 07:33:04;;;;;;;5.83;3.72;;;;;;;19.10;75.25;98901.30;1826504;76;21025;-80
2022/06/23 07:35:48;;;;;;;7.15;3.95;;;;;;;19.36;74.38;98909.80;1839254;77;21475;-78
2022/06/23 07:38:24;;;;;;;;;;;;;;;19.56;74.40;98910.63;1770248;80;21014;-80
2022/06/23 07:41:01;;;;;;;4.10;3.70;;;;;;;19.74;73.37;98910.91;1774264;80;21461;-78
2022/06/23 07:43:52;;;;;;;4.00;3.67;;;;;;;19.88;73.14;98912.19;1765786;80;21046;-79
2022/06/23 07:46:18;;;;;;;5.42;4.17;;;;;;;20.01;72.52;98915.03;1750306;80;21029;-78
2022/06/23 07:48:45;;;;;;;4.95;4.05;;;;;;;20.12;71.31;98919.50;1777869;79;21133;-81
2022/06/23 07:51:12;;;;;;;6.08;3.83;;;;;;;20.21;71.66;98912.61;1779847;79;21065;-79
2022/06/23 07:53:42;;;;;;;4.33;3.80;;;;;;;20.40;71.49;98923.89;1804851;79;21108;-79
2022/06/23 07:56:16;;;;;;;4.25;3.85;;;;;;;20.55;70.47;98923.77;1765796;79;21021;-80
2022/06/23 07:58:43;;;;;;;6.60;4.40;;;;;;;20.55;70.20;98927.30;1790813;79;21046;-82
2022/06/23 08:01:41;;;;;;;5.03;4.00;;;;;;;20.51;70.50;98926.69;1749912;80;21011;-82
2022/06/23 08:04:45;;;;;;;5.75;4.12;;;;;;;20.49;70.14;98936.38;1783650;79;21037;-76
2022/06/23 08:07:12;;;;;;;6.90;4.55;;;;;;;20.36;69.92;98943.00;1771460;79;21308;-80
2022/06/23 08:09:46;;;;;;;4.97;4.37;;;;;;;20.19;70.57;98942.25;1779999;79;21051;-82
2022/06/23 08:18:14;;;;;;;4.03;3.62;;;;;;;19.94;70.68;98945.42;1771514;77;20954;-87
2022/06/23 08:20:44;;;;;;;8.58;4.00;;;;;;;19.81;70.68;98955.48;1781752;79;21512;-81
2022/06/23 08:23:10;;;;;;;4.62;3.72;;;;;;;19.75;71.15;98957.02;1776479;80;21134;-82
2022/06/23 08:25:37;;;;;;;7.40;3.75;;;;;;;19.76;70.90;98962.16;1778456;79;21057;-83
2022/06/23 08:28:04;;;;;;;6.70;4.00;;;;;;;19.80;71.08;98960.59;1788483;79;21069;-81
2022/06/23 08:30:32;;;;;;;4.72;4.15;;;;;;;19.83;71.42;98977.60;1777942;79;21181;-82
2022/06/23 08:32:59;;;;;;;5.37;3.72;;;;;;;19.91;71.64;98975.56;1775943;80;21793;-86
2022/06/23 08:35:44;;;;;;;4.53;3.72;;;;;;;20.06;70.92;98967.69;1776414;79;21638;-84
2022/06/23 08:38:25;;;;;;;4.65;4.17;;;;;;;20.18;70.12;98967.03;1786902;79;21001;-87
2022/06/23 08:41:15;;;;;;;5.37;4.30;;;;;;;20.19;69.71;98972.72;1785937;79;21556;-85
2022/06/23 08:44:01;;;;;;;7.03;3.98;;;;;;;20.19;69.54;98970.02;1785043;79;21045;-84
2022/06/23 08:46:56;;;;;;;5.78;4.12;;;;;;;20.18;69.61;98979.70;1791526;79;21840;-81
2022/06/23 08:49:30;;;;;;;4.75;4.35;;;;;;;20.14;69.69;98975.34;1772420;80;20996;-82
2022/06/23 08:52:08;;;;;;;10.93;4.08;;;;;;;20.12;69.27;98980.70;1750582;79;21033;-81
2022/06/23 08:54:41;;;;;;;6.92;3.90;;;;;;;20.07;69.46;98991.41;1782603;79;21058;-82
2022/06/23 08:57:21;;;;;;;4.35;3.90;;;;;;;19.98;69.56;98987.80;1793871;79;21593;-84
2022/06/23 09:00:02;;;;;;;3.92;3.58;;;;;;;19.91;69.64;98992.54;1764257;80;21153;-83
2022/06/23 09:02:35;;;;;;;5.17;3.62;;;;;;;19.81;69.30;98995.91;1740485;80;21046;-80
2022/06/23 09:05:25;;;;;;;3.72;3.17;;;;;;;19.83;69.51;98993.77;1755664;81;21105;-84
2022/06/23 09:08:26;;;;;;;4.30;3.90;;;;;;;19.88;69.56;98995.75;1747159;81;21085;-82
2022/06/23 09:11:14;;;;;;;10.25;5.12;;;;;;;19.86;69.60;99009.16;1760550;79;21084;-79
2022/06/23 09:14:13;;;;;;;4.78;3.80;;;;;;;19.92;69.61;99011.70;1751690;81;21541;-81
2022/06/23 09:17:39;;;;;;;8.18;4.33;;;;;;;20.12;70.07;99011.71;1740382;80;21042;-81
2022/06/23 09:20:53;;;;;;;3.58;3.27;;;;;;;20.47;70.00;99018.10;1810405;78;21086;-81
2022/06/23 09:23:31;;;;;;;4.75;4.22;;;;;;;20.90;68.96;99017.02;1804513;77;20997;-82
2022/06/23 09:26:29;;;;;;;6.22;4.28;;;;;;;21.30;68.42;99019.30;1812441;78;20978;-83
2022/06/23 09:28:57;;;;;;;4.25;3.50;;;;;;;21.64;68.02;99014.23;1786615;78;21135;-84
2022/06/23 09:31:35;;;;;;;4.12;3.62;;;;;;;21.98;67.09;99012.86;1812106;77;21045;-81
2022/06/23 09:34:41;;;;;;;4.72;3.37;;;;;;;22.18;64.92;99015.41;1802744;78;21004;-81
2022/06/23 09:37:31;;;;;;;4.15;3.60;;;;;;;22.30;63.51;99015.23;1798725;78;20978;-82
2022/06/23 09:40:18;;;;;;;7.15;3.30;;;;;;;22.33;62.74;99018.77;1798574;78;21041;-84
2022/06/23 09:43:25;;;;;;;5.53;3.75;;;;;;;22.32;61.56;99022.55;1797135;78;21215;-82
2022/06/23 09:46:06;;;;;;;5.47;3.58;;;;;;;22.29;61.18;99028.47;1814622;78;21076;-82
2022/06/23 09:48:56;;;;;;;5.12;3.70;;;;;;;22.23;60.79;99024.08;1774362;80;21029;-79
2022/06/23 09:51:43;;;;;;;4.45;3.40;;;;;;;22.15;60.84;99024.84;1808139;78;21459;-79
2022/06/23 09:54:48;;;;;;;4.05;3.00;;;;;;;22.03;60.00;99031.00;1817938;77;21013;-79
2022/06/23 09:57:55;;;;;;;3.75;3.20;;;;;;;21.85;59.73;99040.89;1799284;77;21075;-77
2022/06/23 10:00:48;;;;;;;6.75;3.95;;;;;;;21.65;60.83;99045.58;1784187;78;21100;-78
2022/06/23 10:03:38;;;;;;;3.42;3.12;;;;;;;21.52;60.76;99048.20;1808662;77;21153;-81
2022/06/23 10:06:45;;;;;;;4.58;3.10;;;;;;;21.38;61.18;99045.88;1823310;77;21014;-82
2022/06/23 10:09:51;;;;;;;6.78;3.33;;;;;;;21.27;61.19;99046.84;1830322;77;21577;-79
2022/06/23 10:12:53;;;;;;;5.62;3.60;;;;;;;21.17;60.82;99049.42;1831128;77;21182;-85
2022/06/23 10:16:01;;;;;;;4.72;2.90;;;;;;;21.11;60.38;99047.23;1836402;77;21102;-83
2022/06/23 10:18:51;;;;;;;4.75;3.00;;;;;;;21.05;60.38;99047.42;1844883;77;21580;-84
2022/06/23 10:21:51;;;;;;;7.30;2.90;;;;;;;21.03;60.45;99053.61;1814633;77;21094;-80
2022/06/23 10:24:55;;;;;;;7.17;3.08;;;;;;;21.08;60.50;99056.37;1829522;77;21509;-78
2022/06/23 10:27:36;;;;;;;3.42;2.90;;;;;;;21.19;60.25;99052.17;1820890;77;21135;-84
2022/06/23 10:30:42;;;;;;;5.30;3.10;;;;;;;21.34;59.47;99043.92;1798974;79;21021;-77
2022/06/23 10:33:22;;;;;;;4.35;3.20;;;;;;;21.44;59.27;99052.70;1772781;80;20974;-80
2022/06/23 10:35:54;;;;;;;10.35;4.62;;;;;;;21.51;58.85;99061.41;1769887;80;21302;-76
2022/06/23 10:38:50;;;;;;;3.35;2.92;;;;;;;21.56;58.79;99065.52;1760812;80;21131;-81
2022/06/23 10:41:34;;;;;;;6.33;2.95;;;;;;;21.59;58.44;99060.94;1791300;79;21777;-82
2022/06/23 10:44:33;;;;;;;6.47;3.02;;;;;;;21.58;58.37;99071.48;1820439;77;21112;-80
2022/06/23 10:47:23;;;;;;;4.03;3.10;;;;;;;21.55;58.15;99067.94;1836001;77;21046;-78
2022/06/23 10:50:19;;;;;;;6.65;3.33;;;;;;;21.48;58.37;99077.61;1768143;79;21014;-81
2022/06/23 10:53:06;;;;;;;3.80;3.12;;;;;;;21.43;58.93;99089.68;1763585;80;21010;-79
2022/06/23 10:55:53;;;;;;;3.75;2.80;;;;;;;21.37;59.50;99089.36;1776418;79;21175;-80
2022/06/23 10:59:02;;;;;;;3.37;3.08;;;;;;;21.30;59.98;99091.44;1833068;77;21032;-81
2022/06/23 11:02:21;;;;;;;3.35;3.00;;;;;;;21.20;60.50;99091.60;1825518;77;20954;-82
2022/06/23 11:05:10;;;;;;;15.85;4.35;;;;;;;21.13;60.73;99098.27;1845766;77;21564;-81
2022/06/23 11:08:11;;;;;;;4.60;3.85;;;;;;;21.07;61.18;99098.74;1830291;77;21041;-82
2022/06/23 11:11:24;;;;;;;6.80;3.10;;;;;;;21.05;61.53;99101.42;1839009;77;21290;-83
2022/06/23 11:14:05;;;;;;;5.97;3.60;;;;;;;20.96;61.71;99111.33;1826435;77;23200;-84
2022/06/23 11:16:57;;;;;;;3.83;3.52;;;;;;;20.91;61.83;99116.66;1828155;77;21021;-86
2022/06/23 11:20:20;;;;;;;6.42;3.42;;;;;;;20.84;61.84;99118.71;1807464;78;21073;-83
2022/06/23 11:23:08;;;;;;;6.85;3.25;;;;;;;20.76;62.21;99131.30;1764831;80;21091;-86
2022/06/23 11:25:58;;;;;;;3.92;3.12;;;;;;;20.66;62.17;99116.33;1841396;77;21920;-84
2022/06/23 11:28:36;;;;;;;4.62;2.83;;;;;;;20.60;62.33;99131.63;1801867;79;21399;-83
2022/06/23 11:31:17;;;;;;;3.47;3.17;;;;;;;20.54;61.49;99136.11;1803218;79;21009;-84
2022/06/23 11:34:11;;;;;;;3.47;3.12;;;;;;;20.52;61.56;99153.08;1750688;79;21010;-82
2022/06/23 11:37:18;;;;;;;3.65;3.35;;;;;;;20.55;62.20;99157.16;1755255;80;21053;-82
2022/06/23 11:39:59;;;;;;;6.00;3.10;;;;;;;20.59;62.81;99156.45;1740783;81;21113;-83
2022/06/23 11:42:54;;;;;;;4.97;3.65;;;;;;;20.64;63.31;99148.95;1774420;80;21542;-82
2022/06/23 11:45:44;;;;;;;5.17;2.98;;;;;;;20.71;63.41;99155.00;1835319;77;21016;-80
2022/06/23 11:48:16;;;;;;;5.40;3.47;;;;;;;20.76;62.71;99148.30;1763984;80;21085;-77
2022/06/23 11:51:06;;;;;;;3.53;3.23;;;;;;;20.76;60.96;99147.50;1799663;79;21526;-79
2022/06/23 11:53:44;;;;;;;3.80;3.22;;;;;;;20.72;60.94;99162.02;1789415;79;21955;-77
2022/06/23 11:57:06;;;;;;;5.17;3.00;;;;;;;20.70;60.61;99158.75;1763638;79;21046;-76
2022/06/23 11:59:55;;;;;;;3.87;3.10;;;;;;;20.67;60.60;99155.73;1781719;79;21027;-80
2022/06/23 12:02:22;;;;;;;3.35;3.02;;;;;;;20.67;60.45;99161.13;1780047;79;21410;-84
2022/06/23 12:05:00;;;;;;;3.52;3.15;;;;;;;20.69;60.60;99165.77;1835354;77;21092;-82
2022/06/23 12:07:47;;;;;;;3.45;3.12;;;;;;;20.73;60.79;99173.66;1810384;78;21747;-83
2022/06/23 12:10:18;;;;;;;3.30;3.00;;;;;;;20.76;60.68;99176.64;1830796;78;20991;-80
2022/06/23 12:12:47;;;;;;;4.87;3.02;;;;;;;20.79;60.90;99180.20;1828109;78;21068;-81
2022/06/23 12:15:18;;;;;;;4.15;3.27;;;;;;;20.85;60.35;99185.69;1817108;78;21027;-84
2022/06/23 12:17:57;;;;;;;4.60;2.60;;;;;;;20.88;60.16;99186.02;1781823;79;20990;-80
2022/06/23 12:20:48;;;;;;;5.25;2.90;;;;;;;20.90;60.21;99186.58;1812469;78;21511;-83
2022/06/23 12:23:43;;;;;;;4.95;3.08;;;;;;;20.91;60.33;99182.80;1749967;81;21089;-80
2022/06/23 12:26:23;;;;;;;5.12;3.47;;;;;;;20.94;60.44;99180.95;1816070;78;21020;-83
2022/06/23 12:29:25;;;;;;;4.55;3.35;;;;;;;20.98;60.08;99176.69;1828823;78;21057;-84
2022/06/23 12:32:14;;;;;;;3.70;2.90;;;;;;;21.01;59.75;99184.30;1781001;78;20959;-83
2022/06/23 12:34:56;;;;;;;11.40;3.02;;;;;;;21.01;59.60;99184.30;1784210;78;20999;-81
2022/06/23 12:37:34;;;;;;;4.58;2.87;;;;;;;21.01;60.00;99193.75;1815594;78;20986;-81
2022/06/23 12:40:32;;;;;;;4.87;3.00;;;;;;;21.05;59.97;99190.53;1825865;78;21053;-81
2022/06/23 12:43:13;;;;;;;3.60;2.92;;;;;;;21.07;59.97;99201.36;1829634;78;21683;-81
2022/06/23 12:46:07;;;;;;;4.30;2.67;;;;;;;21.09;59.95;99199.22;1820966;78;21041;-80
2022/06/23 12:49:00;;;;;;;3.75;2.80;;;;;;;21.10;59.78;99196.02;1821544;78;21295;-79
2022/06/23 12:52:08;;;;;;;3.35;3.05;;;;;;;21.10;59.45;99195.47;1811702;78;21018;-82
2022/06/23 12:55:09;;;;;;;5.90;2.85;;;;;;;21.13;59.29;99194.14;1798797;78;21057;-81
2022/06/23 12:58:02;;;;;;;2.80;2.60;;;;;;;21.20;59.25;99195.59;1822123;78;21002;-80
2022/06/23 13:00:58;;;;;;;3.33;2.90;;;;;;;21.30;58.84;99197.59;1821228;78;21053;-79
2022/06/23 13:03:48;;;;;;;4.90;3.12;;;;;;;21.45;58.74;99198.89;1827731;78;21851;-80